sensor_id;sensor_type;location;lat;lon;timestamp;pressure;altitude;pressure_sealevel;temperature;humidity
70684;BME280;58263;48.146;11.440;2022-09-16T00:01:21;95106.53;;;15.07;75.90
70684;BME280;58263;48.146;11.440;2022-09-16T00:03:46;95106.81;;;15.00;75.36
70684;BME280;58263;48.146;11.440;2022-09-16T00:06:18;95098.97;;;15.04;75.92
70684;BME280;58263;48.146;11.440;2022-09-16T00:08:44;95097.34;;;15.03;75.63
70684;BME280;58263;48.146;11.440;2022-09-16T00:11:10;95102.19;;;15.01;76.34
70684;BME280;58263;48.146;11.440;2022-09-16T00:13:36;95099.78;;;14.99;75.79
70684;BME280;58263;48.146;11.440;2022-09-16T00:16:06;95094.66;;;14.93;76.01
70684;BME280;58263;48.146;11.440;2022-09-16T00:18:31;95094.13;;;14.91;76.47
70684;BME280;58263;48.146;11.440;2022-09-16T00:20:57;95087.63;;;14.97;75.99
70684;BME280;58263;48.146;11.440;2022-09-16T00:23:22;95085.22;;;14.95;77.23
70684;BME280;58263;48.146;11.440;2022-09-16T00:25:54;95072.25;;;14.92;76.29
70684;BME280;58263;48.146;11.440;2022-09-16T00:28:20;95080.59;;;15.01;75.48
70684;BME280;58263;48.146;11.440;2022-09-16T00:30:47;95073.84;;;15.03;75.57
70684;BME280;58263;48.146;11.440;2022-09-16T00:33:12;95083.56;;;14.99;75.66
70684;BME280;58263;48.146;11.440;2022-09-16T00:35:38;95083.03;;;15.02;76.03
70684;BME280;58263;48.146;11.440;2022-09-16T00:38:03;95083.56;;;14.99;75.66
70684;BME280;58263;48.146;11.440;2022-09-16T00:40:28;95087.63;;;15.02;76.22
70684;BME280;58263;48.146;11.440;2022-09-16T00:42:54;95083.28;;;15.01;75.73
70684;BME280;58263;48.146;11.440;2022-09-16T00:45:23;95077.91;;;15.01;75.83
70684;BME280;58263;48.146;11.440;2022-09-16T00:47:56;95081.97;;;14.98;75.77
70684;BME280;58263;48.146;11.440;2022-09-16T00:50:46;95082.78;;;14.99;75.87
70684;BME280;58263;48.146;11.440;2022-09-16T00:53:20;95087.06;;;15.05;75.06
70684;BME280;58263;48.146;11.440;2022-09-16T00:55:47;95091.16;;;14.97;74.71
70684;BME280;58263;48.146;11.440;2022-09-16T00:58:22;95087.09;;;14.95;75.36
70684;BME280;58263;48.146;11.440;2022-09-16T01:00:49;95089.81;;;14.84;75.14
70684;BME280;58263;48.146;11.440;2022-09-16T01:03:15;95087.69;;;14.81;75.26
70684;BME280;58263;48.146;11.440;2022-09-16T01:05:41;95092.28;;;14.65;75.50
70684;BME280;58263;48.146;11.440;2022-09-16T01:08:07;95093.09;;;14.71;75.16
70684;BME280;58263;48.146;11.440;2022-09-16T01:10:32;95082.84;;;14.68;75.16
70684;BME280;58263;48.146;11.440;2022-09-16T01:13:04;95082.31;;;14.66;76.01
70684;BME280;58263;48.146;11.440;2022-09-16T01:15:50;95074.75;;;14.63;76.54
70684;BME280;58263;48.146;11.440;2022-09-16T01:18:27;95080.41;;;14.56;75.55
70684;BME280;58263;48.146;11.440;2022-09-16T01:21:02;95080.16;;;14.63;75.18
70684;BME280;58263;48.146;11.440;2022-09-16T01:29:43;95080.16;;;14.52;75.99
70684;BME280;58263;48.146;11.440;2022-09-16T01:34:58;95080.41;;;14.41;76.19
70684;BME280;58263;48.146;11.440;2022-09-16T01:40:06;95068.28;;;14.48;76.16
70684;BME280;58263;48.146;11.440;2022-09-16T01:43:02;95080.69;;;14.49;76.77
70684;BME280;58263;48.146;11.440;2022-09-16T01:48:21;95076.88;;;14.61;76.42
70684;BME280;58263;48.146;11.440;2022-09-16T01:50:58;95081.50;;;14.60;76.28
70684;BME280;58263;48.146;11.440;2022-09-16T01:53:33;95075.25;;;14.54;76.61
70684;BME280;58263;48.146;11.440;2022-09-16T01:56:12;95079.59;;;14.50;76.33
70684;BME280;58263;48.146;11.440;2022-09-16T01:58:55;95083.38;;;14.54;77.39
70684;BME280;58263;48.146;11.440;2022-09-16T02:01:28;95078.53;;;14.51;77.13
70684;BME280;58263;48.146;11.440;2022-09-16T02:04:03;95079.06;;;14.43;77.37
70684;BME280;58263;48.146;11.440;2022-09-16T02:06:30;95079.59;;;14.50;76.88
70684;BME280;58263;48.146;11.440;2022-09-16T02:09:00;95080.66;;;14.54;77.08
70684;BME280;58263;48.146;11.440;2022-09-16T02:11:27;95080.94;;;14.53;76.91
70684;BME280;58263;48.146;11.440;2022-09-16T02:14:00;95085.53;;;14.52;77.78
70684;BME280;58263;48.146;11.440;2022-09-16T02:16:51;95082.56;;;14.54;77.32
70684;BME280;58263;48.146;11.440;2022-09-16T02:19:24;95088.47;;;14.61;77.75
70684;BME280;58263;48.146;11.440;2022-09-16T02:21:52;95086.06;;;14.60;77.20
70684;BME280;58263;48.146;11.440;2022-09-16T02:24:21;95085.00;;;14.66;76.58
70684;BME280;58263;48.146;11.440;2022-09-16T02:26:55;95082.84;;;14.58;77.36
70684;BME280;58263;48.146;11.440;2022-09-16T02:29:26;95083.66;;;14.68;76.81
70684;BME280;58263;48.146;11.440;2022-09-16T02:31:57;95082.03;;;14.73;77.04
70684;BME280;58263;48.146;11.440;2022-09-16T02:34:32;95085.25;;;14.69;76.70
70684;BME280;58263;48.146;11.440;2022-09-16T02:37:07;95089.03;;;14.74;77.37
70684;BME280;58263;48.146;11.440;2022-09-16T02:39:36;95086.63;;;14.51;77.28
70684;BME280;58263;48.146;11.440;2022-09-16T02:42:04;95088.78;;;14.65;77.12
70684;BME280;58263;48.146;11.440;2022-09-16T02:44:29;95079.06;;;14.69;76.94
70684;BME280;58263;48.146;11.440;2022-09-16T02:47:08;95087.69;;;14.71;77.30
70684;BME280;58263;48.146;11.440;2022-09-16T02:49:56;95078.00;;;14.70;76.91
70684;BME280;58263;48.146;11.440;2022-09-16T02:52:56;95078.50;;;14.72;76.83
70684;BME280;58263;48.146;11.440;2022-09-16T02:55:55;95082.56;;;14.75;77.10
70684;BME280;58263;48.146;11.440;2022-09-16T02:58:22;95083.38;;;14.75;77.23
70684;BME280;58263;48.146;11.440;2022-09-16T03:00:50;95080.41;;;14.66;76.57
70684;BME280;58263;48.146;11.440;2022-09-16T03:03:17;95076.09;;;14.76;76.74
70684;BME280;58263;48.146;11.440;2022-09-16T03:08:31;95077.44;;;14.78;76.93
70684;BME280;58263;48.146;11.440;2022-09-16T03:11:15;95075.28;;;14.75;76.96
70684;BME280;58263;48.146;11.440;2022-09-16T03:24:57;95062.31;;;14.72;77.39
70684;BME280;58263;48.146;11.440;2022-09-16T03:27:37;95057.47;;;14.74;76.90
70684;BME280;58263;48.146;11.440;2022-09-16T03:30:07;95063.94;;;14.78;77.34
70684;BME280;58263;48.146;11.440;2022-09-16T03:32:54;95058.53;;;14.78;76.90
70684;BME280;58263;48.146;11.440;2022-09-16T03:35:25;95059.59;;;14.82;77.22
70684;BME280;58263;48.146;11.440;2022-09-16T03:37:55;95046.66;;;14.79;76.96
70684;BME280;58263;48.146;11.440;2022-09-16T03:40:22;95050.44;;;14.78;76.76
70684;BME280;58263;48.146;11.440;2022-09-16T03:42:48;95052.59;;;14.71;76.33
70684;BME280;58263;48.146;11.440;2022-09-16T03:45:19;95043.69;;;14.70;77.16
70684;BME280;58263;48.146;11.440;2022-09-16T03:47:45;95043.69;;;14.76;76.32
70684;BME280;58263;48.146;11.440;2022-09-16T03:50:12;95045.59;;;14.70;76.52
70684;BME280;58263;48.146;11.440;2022-09-16T03:52:38;95043.97;;;14.64;76.71
70684;BME280;58263;48.146;11.440;2022-09-16T03:55:04;95050.44;;;14.68;76.86
70684;BME280;58263;48.146;11.440;2022-09-16T03:57:29;95039.09;;;14.71;76.70
70684;BME280;58263;48.146;11.440;2022-09-16T03:59:56;95040.44;;;14.74;76.32
70684;BME280;58263;48.146;11.440;2022-09-16T04:02:21;95034.25;;;14.68;76.54
70684;BME280;58263;48.146;11.440;2022-09-16T04:04:46;95045.59;;;14.70;76.38
70684;BME280;58263;48.146;11.440;2022-09-16T04:07:12;95045.59;;;14.65;77.12
70684;BME280;58263;48.146;11.440;2022-09-16T04:09:37;95048.03;;;14.66;76.53
70684;BME280;58263;48.146;11.440;2022-09-16T04:12:03;95055.31;;;14.66;76.65
70684;BME280;58263;48.146;11.440;2022-09-16T04:14:31;95054.22;;;14.67;76.88
70684;BME280;58263;48.146;11.440;2022-09-16T04:16:57;95043.41;;;14.67;77.23
70684;BME280;58263;48.146;11.440;2022-09-16T04:19:22;95041.81;;;14.61;77.04
70684;BME280;58263;48.146;11.440;2022-09-16T04:21:48;95035.88;;;14.53;76.09
70684;BME280;58263;48.146;11.440;2022-09-16T04:24:13;95052.59;;;14.61;76.35
70684;BME280;58263;48.146;11.440;2022-09-16T04:26:39;95047.47;;;14.59;75.72
70684;BME280;58263;48.146;11.440;2022-09-16T04:29:05;95053.16;;;14.52;77.18
70684;BME280;58263;48.146;11.440;2022-09-16T04:31:30;95051.53;;;14.57;76.00
70684;BME280;58263;48.146;11.440;2022-09-16T04:33:55;95060.41;;;14.57;76.35
70684;BME280;58263;48.146;11.440;2022-09-16T04:36:21;95055.31;;;14.50;76.27
70684;BME280;58263;48.146;11.440;2022-09-16T04:38:47;95051.25;;;14.48;75.79
70684;BME280;58263;48.146;11.440;2022-09-16T04:41:19;95056.13;;;14.51;76.44
70684;BME280;58263;48.146;11.440;2022-09-16T04:43:45;95053.72;;;14.49;75.80
70684;BME280;58263;48.146;11.440;2022-09-16T04:46:11;95052.09;;;14.48;75.22
70684;BME280;58263;48.146;11.440;2022-09-16T04:48:37;95057.47;;;14.38;75.73
70684;BME280;58263;48.146;11.440;2022-09-16T04:51:05;95063.16;;;14.52;75.19
70684;BME280;58263;48.146;11.440;2022-09-16T04:53:32;95062.31;;;14.51;76.07
70684;BME280;58263;48.146;11.440;2022-09-16T04:56:08;95058.31;;;14.39;75.67
70684;BME280;58263;48.146;11.440;2022-09-16T04:58:35;95065.03;;;14.57;75.22
70684;BME280;58263;48.146;11.440;2022-09-16T05:01:08;95066.66;;;14.52;75.45
70684;BME280;58263;48.146;11.440;2022-09-16T05:03:38;95069.88;;;14.54;74.95
70684;BME280;58263;48.146;11.440;2022-09-16T05:06:05;95067.72;;;14.57;74.86
70684;BME280;58263;48.146;11.440;2022-09-16T05:08:30;95073.13;;;14.57;75.08
70684;BME280;58263;48.146;11.440;2022-09-16T05:11:02;95063.41;;;14.56;75.11
70684;BME280;58263;48.146;11.440;2022-09-16T05:13:27;95072.31;;;14.51;75.80
70684;BME280;58263;48.146;11.440;2022-09-16T05:15:52;95075.03;;;14.51;74.78
70684;BME280;58263;48.146;11.440;2022-09-16T05:18:18;95079.31;;;14.57;75.29
70684;BME280;58263;48.146;11.440;2022-09-16T05:20:43;95075.53;;;14.48;74.64
70684;BME280;58263;48.146;11.440;2022-09-16T05:23:08;95070.94;;;14.59;75.64
70684;BME280;58263;48.146;11.440;2022-09-16T05:25:34;95069.91;;;14.49;75.69
70684;BME280;58263;48.146;11.440;2022-09-16T05:27:59;95068.28;;;14.48;75.82
70684;BME280;58263;48.146;11.440;2022-09-16T05:30:25;95065.56;;;14.53;76.10
70684;BME280;58263;48.146;11.440;2022-09-16T05:32:53;95068.53;;;14.57;75.25
70684;BME280;58263;48.146;11.440;2022-09-16T05:35:19;95057.47;;;14.48;75.47
70684;BME280;58263;48.146;11.440;2022-09-16T05:37:44;95060.19;;;14.48;75.58
70684;BME280;58263;48.146;11.440;2022-09-16T05:40:09;95053.44;;;14.56;75.92
70684;BME280;58263;48.146;11.440;2022-09-16T05:42:35;95061.78;;;14.54;75.86
70684;BME280;58263;48.146;11.440;2022-09-16T05:45:00;95054.22;;;14.51;74.96
70684;BME280;58263;48.146;11.440;2022-09-16T05:47:25;95055.56;;;14.54;76.10
70684;BME280;58263;48.146;11.440;2022-09-16T05:49:51;95060.69;;;14.56;75.36
70684;BME280;58263;48.146;11.440;2022-09-16T05:52:18;95060.41;;;14.62;75.75
70684;BME280;58263;48.146;11.440;2022-09-16T05:54:44;95057.44;;;14.59;75.90
70684;BME280;58263;48.146;11.440;2022-09-16T05:57:09;95053.44;;;14.66;75.57
70684;BME280;58263;48.146;11.440;2022-09-16T05:59:34;95055.28;;;14.71;75.57
70684;BME280;58263;48.146;11.440;2022-09-16T06:01:59;95054.75;;;14.74;75.35
70684;BME280;58263;48.146;11.440;2022-09-16T06:04:25;95061.22;;;14.78;74.77
70684;BME280;58263;48.146;11.440;2022-09-16T06:06:50;95060.16;;;14.69;75.79
70684;BME280;58263;48.146;11.440;2022-09-16T06:09:18;95060.69;;;14.71;75.59
70684;BME280;58263;48.146;11.440;2022-09-16T06:11:46;95056.38;;;14.75;75.59
70684;BME280;58263;48.146;11.440;2022-09-16T06:14:13;95057.47;;;14.74;74.33
70684;BME280;58263;48.146;11.440;2022-09-16T06:16:39;95064.44;;;14.80;74.43
70684;BME280;58263;48.146;11.440;2022-09-16T06:19:08;95043.97;;;14.79;74.85
70684;BME280;58263;48.146;11.440;2022-09-16T06:21:35;95047.72;;;14.78;75.40
70684;BME280;58263;48.146;11.440;2022-09-16T06:24:01;95053.13;;;14.83;75.15
70684;BME280;58263;48.146;11.440;2022-09-16T06:26:27;95045.25;;;14.87;74.66
70684;BME280;58263;48.146;11.440;2022-09-16T06:28:54;95046.66;;;14.79;74.94
70684;BME280;58263;48.146;11.440;2022-09-16T06:31:22;95056.06;;;14.82;75.23
70684;BME280;58263;48.146;11.440;2022-09-16T06:33:48;95060.13;;;14.84;75.29
70684;BME280;58263;48.146;11.440;2022-09-16T06:36:31;95052.00;;;14.90;75.37
70684;BME280;58263;48.146;11.440;2022-09-16T06:38:57;95041.00;;;14.76;75.68
70684;BME280;58263;48.146;11.440;2022-09-16T06:41:23;95051.50;;;14.87;75.18
70684;BME280;58263;48.146;11.440;2022-09-16T06:43:49;95054.72;;;14.84;74.88
70684;BME280;58263;48.146;11.440;2022-09-16T06:46:24;95057.97;;;14.86;75.28
70684;BME280;58263;48.146;11.440;2022-09-16T06:48:51;95063.38;;;14.81;76.09
70684;BME280;58263;48.146;11.440;2022-09-16T06:51:22;95053.88;;;14.94;75.53
70684;BME280;58263;48.146;11.440;2022-09-16T06:53:48;95055.25;;;14.92;75.83
70684;BME280;58263;48.146;11.440;2022-09-16T06:56:17;95056.31;;;14.96;75.01
70684;BME280;58263;48.146;11.440;2022-09-16T06:58:45;95054.69;;;14.95;75.68
70684;BME280;58263;48.146;11.440;2022-09-16T07:01:15;95048.47;;;14.94;75.42
70684;BME280;58263;48.146;11.440;2022-09-16T07:03:43;95046.03;;;15.03;74.67
70684;BME280;58263;48.146;11.440;2022-09-16T07:06:09;95041.72;;;14.97;74.54
70684;BME280;58263;48.146;11.440;2022-09-16T07:08:37;95042.78;;;15.01;75.02
70684;BME280;58263;48.146;11.440;2022-09-16T07:11:05;95041.97;;;15.06;74.84
70684;BME280;58263;48.146;11.440;2022-09-16T07:13:30;95046.53;;;15.10;74.66
70684;BME280;58263;48.146;11.440;2022-09-16T07:16:00;95047.56;;;15.25;74.74
70684;BME280;58263;48.146;11.440;2022-09-16T07:18:30;95050.56;;;15.23;73.87
70684;BME280;58263;48.146;11.440;2022-09-16T07:23:29;95047.00;;;15.28;73.55
70684;BME280;58263;48.146;11.440;2022-09-16T07:26:06;95055.13;;;15.23;73.48
70684;BME280;58263;48.146;11.440;2022-09-16T07:28:33;95050.25;;;15.30;72.80
70684;BME280;58263;48.146;11.440;2022-09-16T07:31:03;95052.69;;;15.26;72.93
70684;BME280;58263;48.146;11.440;2022-09-16T07:33:29;95053.44;;;15.37;73.35
70684;BME280;58263;48.146;11.440;2022-09-16T07:35:57;95058.31;;;15.35;74.34
70684;BME280;58263;48.146;11.440;2022-09-16T07:38:23;95050.75;;;15.37;72.23
70684;BME280;58263;48.146;11.440;2022-09-16T07:40:48;95047.50;;;15.35;71.89
70684;BME280;58263;48.146;11.440;2022-09-16T07:43:14;95054.53;;;15.36;72.14
70684;BME280;58263;48.146;11.440;2022-09-16T07:45:39;95059.91;;;15.46;71.34
70684;BME280;58263;48.146;11.440;2022-09-16T07:48:04;95051.50;;;15.48;71.31
70684;BME280;58263;48.146;11.440;2022-09-16T07:50:30;95053.94;;;15.49;71.93
70684;BME280;58263;48.146;11.440;2022-09-16T07:52:55;95047.47;;;15.40;70.86
70684;BME280;58263;48.146;11.440;2022-09-16T07:55:20;95050.69;;;15.47;71.28
70684;BME280;58263;48.146;11.440;2022-09-16T07:57:46;95048.22;;;15.56;72.44
70684;BME280;58263;48.146;11.440;2022-09-16T08:00:11;95050.63;;;15.58;72.24
70684;BME280;58263;48.146;11.440;2022-09-16T08:02:37;95056.50;;;15.70;72.29
70684;BME280;58263;48.146;11.440;2022-09-16T08:05:03;95049.25;;;15.65;72.92
70684;BME280;58263;48.146;11.440;2022-09-16T08:07:29;95052.75;;;15.66;71.97
70684;BME280;58263;48.146;11.440;2022-09-16T08:09:54;95056.50;;;15.70;72.29
70684;BME280;58263;48.146;11.440;2022-09-16T08:12:20;95057.06;;;15.67;71.64
70684;BME280;58263;48.146;11.440;2022-09-16T08:14:45;95049.16;;;15.81;71.86
70684;BME280;58263;48.146;11.440;2022-09-16T08:17:10;95058.63;;;15.83;72.61
70684;BME280;58263;48.146;11.440;2022-09-16T08:19:35;95050.47;;;15.88;71.65
70684;BME280;58263;48.146;11.440;2022-09-16T08:22:03;95050.66;;;16.02;72.10
70684;BME280;58263;48.146;11.440;2022-09-16T08:24:28;95052.81;;;16.00;70.05
70684;BME280;58263;48.146;11.440;2022-09-16T08:26:53;95055.97;;;16.13;70.67
70684;BME280;58263;48.146;11.440;2022-09-16T08:29:19;95060.84;;;16.16;69.41
70684;BME280;58263;48.146;11.440;2022-09-16T08:31:46;95060.97;;;16.30;69.22
70684;BME280;58263;48.146;11.440;2022-09-16T08:34:12;95062.09;;;16.23;69.94
70684;BME280;58263;48.146;11.440;2022-09-16T08:36:37;95063.41;;;16.31;69.64
70684;BME280;58263;48.146;11.440;2022-09-16T08:39:03;95058.78;;;16.32;68.83
70684;BME280;58263;48.146;11.440;2022-09-16T08:47:06;95053.63;;;16.35;68.62
70684;BME280;58263;48.146;11.440;2022-09-16T08:49:43;95048.38;;;16.44;67.89
70684;BME280;58263;48.146;11.440;2022-09-16T08:52:17;95051.19;;;16.34;68.04
70684;BME280;58263;48.146;11.440;2022-09-16T08:54:51;95054.91;;;16.43;68.01
70684;BME280;58263;48.146;11.440;2022-09-16T08:57:21;95054.66;;;16.39;68.39
70684;BME280;58263;48.146;11.440;2022-09-16T08:59:51;95061.88;;;16.49;68.38
70684;BME280;58263;48.146;11.440;2022-09-16T09:02:47;95059.19;;;16.49;68.26
70684;BME280;58263;48.146;11.440;2022-09-16T09:06:08;95064.59;;;16.49;67.79
70684;BME280;58263;48.146;11.440;2022-09-16T09:11:21;95060.50;;;16.52;69.24
70684;BME280;58263;48.146;11.440;2022-09-16T09:16:45;95060.34;;;16.43;68.04
70684;BME280;58263;48.146;11.440;2022-09-16T09:27:41;95047.41;;;16.35;69.75
70684;BME280;58263;48.146;11.440;2022-09-16T09:30:11;95050.47;;;16.23;70.62
70684;BME280;58263;48.146;11.440;2022-09-16T09:40:54;95031.16;;;16.35;71.80
70684;BME280;58263;48.146;11.440;2022-09-16T09:43:30;95036.16;;;16.22;71.52
70684;BME280;58263;48.146;11.440;2022-09-16T09:46:00;95029.00;;;16.02;72.97
70684;BME280;58263;48.146;11.440;2022-09-16T09:48:42;95032.63;;;16.22;72.37
70684;BME280;58263;48.146;11.440;2022-09-16T09:51:32;95032.63;;;16.22;73.61
70684;BME280;58263;48.146;11.440;2022-09-16T09:54:03;95029.25;;;16.06;74.07
70684;BME280;58263;48.146;11.440;2022-09-16T09:56:35;95034.06;;;16.14;74.08
70684;BME280;58263;48.146;11.440;2022-09-16T09:59:46;95031.91;;;16.11;74.32
70684;BME280;58263;48.146;11.440;2022-09-16T10:02:16;95029.84;;;15.98;74.29
70684;BME280;58263;48.146;11.440;2022-09-16T10:04:42;95033.09;;;15.95;74.03
70684;BME280;58263;48.146;11.440;2022-09-16T10:07:08;95031.84;;;15.87;74.45
70684;BME280;58263;48.146;11.440;2022-09-16T10:09:35;95018.81;;;15.89;76.26
70684;BME280;58263;48.146;11.440;2022-09-16T10:12:01;95017.03;;;15.69;74.93
70684;BME280;58263;48.146;11.440;2022-09-16T10:14:32;95013.28;;;15.65;76.63
70684;BME280;58263;48.146;11.440;2022-09-16T10:17:03;95020.50;;;15.80;74.45
70684;BME280;58263;48.146;11.440;2022-09-16T10:19:33;95020.25;;;15.76;74.69
70684;BME280;58263;48.146;11.440;2022-09-16T10:22:10;95012.75;;;15.68;75.75
70684;BME280;58263;48.146;11.440;2022-09-16T10:24:41;95014.28;;;15.84;76.41
70684;BME280;58263;48.146;11.440;2022-09-16T10:27:36;95008.59;;;15.76;76.96
70684;BME280;58263;48.146;11.440;2022-09-16T10:32:47;94999.09;;;15.88;75.31
70684;BME280;58263;48.146;11.440;2022-09-16T10:35:20;95006.38;;;15.88;75.49
70684;BME280;58263;48.146;11.440;2022-09-16T10:37:50;94997.38;;;15.98;75.31
70684;BME280;58263;48.146;11.440;2022-09-16T10:40:16;94999.53;;;16.01;75.26
70684;BME280;58263;48.146;11.440;2022-09-16T10:42:45;94988.72;;;16.01;74.63
70684;BME280;58263;48.146;11.440;2022-09-16T10:45:21;94995.09;;;15.81;75.58
70684;BME280;58263;48.146;11.440;2022-09-16T10:47:53;94994.38;;;15.60;76.79
70684;BME280;58263;48.146;11.440;2022-09-16T10:50:20;94995.03;;;15.46;73.99
70684;BME280;58263;48.146;11.440;2022-09-16T10:52:47;94998.06;;;15.34;73.97
70684;BME280;58263;48.146;11.440;2022-09-16T10:55:25;94994.13;;;15.11;73.52
70684;BME280;58263;48.146;11.440;2022-09-16T10:57:52;94995.31;;;14.84;72.10
70684;BME280;58263;48.146;11.440;2022-09-16T11:00:20;95021.53;;;14.74;73.53
70684;BME280;58263;48.146;11.440;2022-09-16T11:14:01;95018.91;;;14.27;74.18
70684;BME280;58263;48.146;11.440;2022-09-16T11:22:21;95012.19;;;14.19;73.52
70684;BME280;58263;48.146;11.440;2022-09-16T11:30:05;95030.53;;;14.07;74.87
70684;BME280;58263;48.146;11.440;2022-09-16T11:38:17;95057.50;;;13.81;76.42
70684;BME280;58263;48.146;11.440;2022-09-16T11:46:10;95056.94;;;13.79;74.89
70684;BME280;58263;48.146;11.440;2022-09-16T11:49:41;95058.56;;;13.96;74.12
70684;BME280;58263;48.146;11.440;2022-09-16T11:57:27;95061.00;;;13.97;74.79
70684;BME280;58263;48.146;11.440;2022-09-16T12:00:05;95066.41;;;13.92;74.16
70684;BME280;58263;48.146;11.440;2022-09-16T12:02:39;95065.28;;;13.78;75.35
70684;BME280;58263;48.146;11.440;2022-09-16T12:05:18;95078.25;;;13.86;74.07
70684;BME280;58263;48.146;11.440;2022-09-16T12:10:49;95066.13;;;14.09;73.23
70684;BME280;58263;48.146;11.440;2022-09-16T12:13:26;95081.22;;;13.95;73.02
70684;BME280;58263;48.146;11.440;2022-09-16T12:15:55;95073.66;;;13.92;74.22
70684;BME280;58263;48.146;11.440;2022-09-16T12:18:31;95079.06;;;13.86;74.88
70684;BME280;58263;48.146;11.440;2022-09-16T12:23:45;95084.44;;;13.92;73.76
70684;BME280;58263;48.146;11.440;2022-09-16T12:26:17;95091.19;;;13.94;74.21
70684;BME280;58263;48.146;11.440;2022-09-16T12:29:04;95093.88;;;13.89;74.21
70684;BME280;58263;48.146;11.440;2022-09-16T12:31:56;95079.59;;;13.83;74.21
70684;BME280;58263;48.146;11.440;2022-09-16T12:34:42;95102.78;;;13.84;74.52
70684;BME280;58263;48.146;11.440;2022-09-16T12:37:21;95113.00;;;13.72;75.46
70684;BME280;58263;48.146;11.440;2022-09-16T12:39:49;95121.38;;;13.76;76.41
70684;BME280;58263;48.146;11.440;2022-09-16T12:45:45;95116.28;;;13.90;76.02
70684;BME280;58263;48.146;11.440;2022-09-16T12:57:23;95118.44;;;13.98;75.42
70684;BME280;58263;48.146;11.440;2022-09-16T13:00:14;95125.97;;;13.85;75.00
70684;BME280;58263;48.146;11.440;2022-09-16T13:02:57;95115.41;;;13.74;74.56
70684;BME280;58263;48.146;11.440;2022-09-16T13:05:35;95112.50;;;13.85;73.78
70684;BME280;58263;48.146;11.440;2022-09-16T13:08:17;95105.47;;;14.00;73.23
70684;BME280;58263;48.146;11.440;2022-09-16T13:10:44;95109.81;;;14.01;73.09
70684;BME280;58263;48.146;11.440;2022-09-16T13:13:27;95095.81;;;13.99;72.73
70684;BME280;58263;48.146;11.440;2022-09-16T13:15:58;95096.84;;;13.93;74.16
70684;BME280;58263;48.146;11.440;2022-09-16T13:18:43;95078.53;;;14.05;74.03
70684;BME280;58263;48.146;11.440;2022-09-16T13:21:25;95088.25;;;14.06;73.19
70684;BME280;58263;48.146;11.440;2022-09-16T13:24:10;95083.38;;;13.93;73.36
70684;BME280;58263;48.146;11.440;2022-09-16T13:26:42;95074.75;;;14.01;74.22
70684;BME280;58263;48.146;11.440;2022-09-16T13:29:37;95079.59;;;14.04;74.25
70684;BME280;58263;48.146;11.440;2022-09-16T13:32:03;95074.22;;;14.04;71.97
70684;BME280;58263;48.146;11.440;2022-09-16T13:34:29;95068.53;;;14.31;73.93
70684;BME280;58263;48.146;11.440;2022-09-16T13:36:55;95073.66;;;14.48;71.33
70684;BME280;58263;48.146;11.440;2022-09-16T13:39:32;95094.19;;;14.24;72.71
70684;BME280;58263;48.146;11.440;2022-09-16T13:42:18;95096.88;;;14.24;73.34
70684;BME280;58263;48.146;11.440;2022-09-16T13:44:45;95104.44;;;14.27;72.59
70684;BME280;58263;48.146;11.440;2022-09-16T13:52:27;95110.91;;;14.10;71.85
70684;BME280;58263;48.146;11.440;2022-09-16T13:54:55;95109.81;;;14.06;72.86
70684;BME280;58263;48.146;11.440;2022-09-16T14:00:18;95118.16;;;13.94;73.53
70684;BME280;58263;48.146;11.440;2022-09-16T14:08:10;95135.13;;;13.84;73.31
70684;BME280;58263;48.146;11.440;2022-09-16T14:13:15;95131.88;;;13.77;74.14
70684;BME280;58263;48.146;11.440;2022-09-16T14:15:44;95137.00;;;13.79;74.23
70684;BME280;58263;48.146;11.440;2022-09-16T14:18:13;95152.88;;;13.65;74.52
70684;BME280;58263;48.146;11.440;2022-09-16T14:20:54;95151.25;;;13.69;74.44
70684;BME280;58263;48.146;11.440;2022-09-16T14:23:23;95147.47;;;13.65;73.50
70684;BME280;58263;48.146;11.440;2022-09-16T14:25:49;95134.00;;;13.70;73.88
70684;BME280;58263;48.146;11.440;2022-09-16T14:28:23;95135.34;;;13.62;74.39
70684;BME280;58263;48.146;11.440;2022-09-16T14:30:50;95121.88;;;13.73;74.86
70684;BME280;58263;48.146;11.440;2022-09-16T14:33:20;95122.72;;;13.73;73.55
70684;BME280;58263;48.146;11.440;2022-09-16T14:35:47;95123.00;;;13.82;75.08
70684;BME280;58263;48.146;11.440;2022-09-16T14:38:16;95128.66;;;13.80;73.84
70684;BME280;58263;48.146;11.440;2022-09-16T14:40:43;95134.56;;;13.77;74.82
70684;BME280;58263;48.146;11.440;2022-09-16T14:43:14;95130.19;;;13.50;74.17
70684;BME280;58263;48.146;11.440;2022-09-16T14:45:45;95131.25;;;13.55;74.56
70684;BME280;58263;48.146;11.440;2022-09-16T14:48:13;95135.06;;;13.59;74.83
70684;BME280;58263;48.146;11.440;2022-09-16T14:50:43;95136.94;;;13.58;74.87
70684;BME280;58263;48.146;11.440;2022-09-16T14:53:29;95137.22;;;13.62;75.98
70684;BME280;58263;48.146;11.440;2022-09-16T14:55:55;95144.50;;;13.61;75.71
70684;BME280;58263;48.146;11.440;2022-09-16T14:58:22;95143.69;;;13.66;76.21
70684;BME280;58263;48.146;11.440;2022-09-16T15:00:50;95150.16;;;13.60;75.97
70684;BME280;58263;48.146;11.440;2022-09-16T15:05:48;95146.34;;;13.50;75.52
70684;BME280;58263;48.146;11.440;2022-09-16T15:08:25;95139.06;;;13.51;74.09
70684;BME280;58263;48.146;11.440;2022-09-16T15:10:56;95140.69;;;13.52;76.26
70684;BME280;58263;48.146;11.440;2022-09-16T15:13:28;95136.09;;;13.47;74.01
70684;BME280;58263;48.146;11.440;2022-09-16T15:15:58;95137.13;;;13.41;75.10
70684;BME280;58263;48.146;11.440;2022-09-16T15:18:31;95139.31;;;13.49;76.08
70684;BME280;58263;48.146;11.440;2022-09-16T15:21:17;95140.94;;;13.50;77.22
70684;BME280;58263;48.146;11.440;2022-09-16T15:23:51;95136.88;;;13.38;75.47
70684;BME280;58263;48.146;11.440;2022-09-16T15:26:23;95142.00;;;13.39;76.33